Terminal Aerodrome Forecast
Issued by NWS Newport/Morehead City, NC

Home | Current Version | Previous Version | Graphics & Text | Print | Product List | Glossary On
Versions: 1 2 3 4 5 6 7 8 9 10 11 12 13
466
FTUS42 KMHX 121720
TAFEWN
TAF
KEWN 121720Z 1218/1318 26011G18KT P6SM SCT200
     FM122200 28011G19KT P6SM SCT050
     FM130300 30009G18KT P6SM FEW045
     FM130700 31010G22KT P6SM SKC=

USA.gov is the U.S. government's official web portal to all federal, state and local government web resources and services.